sensor_id;sensor_type;location;lat;lon;timestamp;P1;durP1;ratioP1;P2;durP2;ratioP2
76423;SDS011;65257;52.104;4.268;2024-02-14T00:00:40;22.42;;;17.02;;
76423;SDS011;65257;52.104;4.268;2024-02-14T00:03:06;23.02;;;15.95;;
76423;SDS011;65257;52.104;4.268;2024-02-14T00:05:35;24.27;;;16.38;;
76423;SDS011;65257;52.104;4.268;2024-02-14T00:08:04;26.42;;;15.80;;
76423;SDS011;65257;52.104;4.268;2024-02-14T00:10:34;21.35;;;13.20;;
76423;SDS011;65257;52.104;4.268;2024-02-14T00:12:59;20.98;;;14.32;;
76423;SDS011;65257;52.104;4.268;2024-02-14T00:15:33;20.33;;;14.70;;
76423;SDS011;65257;52.104;4.268;2024-02-14T00:18:00;23.65;;;16.60;;
76423;SDS011;65257;52.104;4.268;2024-02-14T00:20:26;22.13;;;13.70;;
76423;SDS011;65257;52.104;4.268;2024-02-14T00:22:51;20.42;;;13.30;;
76423;SDS011;65257;52.104;4.268;2024-02-14T00:25:28;21.42;;;14.40;;
76423;SDS011;65257;52.104;4.268;2024-02-14T00:27:57;19.30;;;12.35;;
76423;SDS011;65257;52.104;4.268;2024-02-14T00:30:42;20.23;;;13.32;;
76423;SDS011;65257;52.104;4.268;2024-02-14T00:33:08;20.73;;;13.75;;
76423;SDS011;65257;52.104;4.268;2024-02-14T00:35:38;23.05;;;12.80;;
76423;SDS011;65257;52.104;4.268;2024-02-14T00:38:04;22.38;;;12.95;;
76423;SDS011;65257;52.104;4.268;2024-02-14T00:40:53;20.45;;;11.98;;
76423;SDS011;65257;52.104;4.268;2024-02-14T00:43:20;17.77;;;11.55;;
76423;SDS011;65257;52.104;4.268;2024-02-14T00:45:46;17.30;;;11.35;;
76423;SDS011;65257;52.104;4.268;2024-02-14T00:48:12;20.30;;;11.30;;
76423;SDS011;65257;52.104;4.268;2024-02-14T00:50:40;19.80;;;13.23;;
76423;SDS011;65257;52.104;4.268;2024-02-14T00:53:06;17.20;;;10.20;;
76423;SDS011;65257;52.104;4.268;2024-02-14T00:55:31;16.48;;;9.98;;
76423;SDS011;65257;52.104;4.268;2024-02-14T00:58:00;19.67;;;12.77;;
76423;SDS011;65257;52.104;4.268;2024-02-14T01:00:25;17.92;;;9.75;;
76423;SDS011;65257;52.104;4.268;2024-02-14T01:02:54;15.07;;;9.13;;
76423;SDS011;65257;52.104;4.268;2024-02-14T01:05:21;17.27;;;10.98;;
76423;SDS011;65257;52.104;4.268;2024-02-14T01:07:46;22.08;;;11.32;;
76423;SDS011;65257;52.104;4.268;2024-02-14T01:10:12;22.30;;;12.75;;
76423;SDS011;65257;52.104;4.268;2024-02-14T01:12:37;16.55;;;10.13;;
76423;SDS011;65257;52.104;4.268;2024-02-14T01:15:08;16.63;;;9.75;;
76423;SDS011;65257;52.104;4.268;2024-02-14T01:17:33;15.27;;;9.10;;
76423;SDS011;65257;52.104;4.268;2024-02-14T01:20:01;19.95;;;10.90;;
76423;SDS011;65257;52.104;4.268;2024-02-14T01:22:30;22.20;;;10.63;;
76423;SDS011;65257;52.104;4.268;2024-02-14T01:24:58;18.30;;;9.20;;
76423;SDS011;65257;52.104;4.268;2024-02-14T01:27:24;21.15;;;10.68;;
76423;SDS011;65257;52.104;4.268;2024-02-14T01:29:49;26.55;;;10.80;;
76423;SDS011;65257;52.104;4.268;2024-02-14T01:32:15;23.38;;;12.02;;
76423;SDS011;65257;52.104;4.268;2024-02-14T01:34:40;21.02;;;9.80;;
76423;SDS011;65257;52.104;4.268;2024-02-14T01:37:07;20.33;;;9.25;;
76423;SDS011;65257;52.104;4.268;2024-02-14T01:39:42;22.27;;;8.80;;
76423;SDS011;65257;52.104;4.268;2024-02-14T01:42:07;16.38;;;7.75;;
76423;SDS011;65257;52.104;4.268;2024-02-14T01:44:33;24.88;;;8.68;;
76423;SDS011;65257;52.104;4.268;2024-02-14T01:46:59;22.13;;;9.75;;
76423;SDS011;65257;52.104;4.268;2024-02-14T01:49:25;22.75;;;10.35;;
76423;SDS011;65257;52.104;4.268;2024-02-14T01:51:53;21.48;;;11.00;;
76423;SDS011;65257;52.104;4.268;2024-02-14T01:54:26;25.48;;;12.02;;
76423;SDS011;65257;52.104;4.268;2024-02-14T01:56:52;23.45;;;10.75;;
76423;SDS011;65257;52.104;4.268;2024-02-14T01:59:23;25.52;;;10.38;;
76423;SDS011;65257;52.104;4.268;2024-02-14T02:01:50;38.67;;;14.43;;
76423;SDS011;65257;52.104;4.268;2024-02-14T02:04:18;31.17;;;12.70;;
76423;SDS011;65257;52.104;4.268;2024-02-14T02:06:43;32.95;;;12.80;;
76423;SDS011;65257;52.104;4.268;2024-02-14T02:09:09;37.30;;;13.88;;
76423;SDS011;65257;52.104;4.268;2024-02-14T02:11:50;49.30;;;16.05;;
76423;SDS011;65257;52.104;4.268;2024-02-14T02:14:21;50.30;;;13.50;;
76423;SDS011;65257;52.104;4.268;2024-02-14T02:16:47;37.10;;;14.65;;
76423;SDS011;65257;52.104;4.268;2024-02-14T02:19:17;42.35;;;11.93;;
76423;SDS011;65257;52.104;4.268;2024-02-14T02:21:43;33.63;;;11.93;;
76423;SDS011;65257;52.104;4.268;2024-02-14T02:24:14;39.70;;;14.77;;
76423;SDS011;65257;52.104;4.268;2024-02-14T02:26:40;34.78;;;12.30;;
76423;SDS011;65257;52.104;4.268;2024-02-14T02:29:09;33.25;;;12.45;;
76423;SDS011;65257;52.104;4.268;2024-02-14T02:31:41;42.03;;;10.65;;
76423;SDS011;65257;52.104;4.268;2024-02-14T02:34:09;35.13;;;12.43;;
76423;SDS011;65257;52.104;4.268;2024-02-14T02:36:35;35.75;;;11.40;;
76423;SDS011;65257;52.104;4.268;2024-02-14T02:39:02;42.05;;;11.55;;
76423;SDS011;65257;52.104;4.268;2024-02-14T02:41:34;36.10;;;9.68;;
76423;SDS011;65257;52.104;4.268;2024-02-14T02:44:00;35.08;;;11.65;;
76423;SDS011;65257;52.104;4.268;2024-02-14T02:46:26;38.38;;;10.82;;
76423;SDS011;65257;52.104;4.268;2024-02-14T02:48:52;39.67;;;11.07;;
76423;SDS011;65257;52.104;4.268;2024-02-14T02:51:20;42.15;;;10.88;;
76423;SDS011;65257;52.104;4.268;2024-02-14T02:53:49;47.80;;;10.68;;
76423;SDS011;65257;52.104;4.268;2024-02-14T02:56:14;48.63;;;9.15;;
76423;SDS011;65257;52.104;4.268;2024-02-14T02:58:40;42.90;;;9.70;;
76423;SDS011;65257;52.104;4.268;2024-02-14T03:01:08;43.72;;;10.45;;
76423;SDS011;65257;52.104;4.268;2024-02-14T03:03:35;40.70;;;8.82;;
76423;SDS011;65257;52.104;4.268;2024-02-14T03:06:03;38.78;;;10.15;;
76423;SDS011;65257;52.104;4.268;2024-02-14T03:08:33;42.38;;;9.90;;
76423;SDS011;65257;52.104;4.268;2024-02-14T03:11:03;31.90;;;7.82;;
76423;SDS011;65257;52.104;4.268;2024-02-14T03:13:34;53.30;;;10.68;;
76423;SDS011;65257;52.104;4.268;2024-02-14T03:16:01;37.13;;;9.88;;
76423;SDS011;65257;52.104;4.268;2024-02-14T03:18:30;34.40;;;9.40;;
76423;SDS011;65257;52.104;4.268;2024-02-14T03:20:55;37.08;;;8.10;;
76423;SDS011;65257;52.104;4.268;2024-02-14T03:23:21;41.40;;;9.38;;
76423;SDS011;65257;52.104;4.268;2024-02-14T03:25:47;36.28;;;8.60;;
76423;SDS011;65257;52.104;4.268;2024-02-14T03:28:16;52.67;;;12.25;;
76423;SDS011;65257;52.104;4.268;2024-02-14T03:30:44;45.25;;;10.93;;
76423;SDS011;65257;52.104;4.268;2024-02-14T03:33:10;41.20;;;9.85;;
76423;SDS011;65257;52.104;4.268;2024-02-14T03:35:35;44.72;;;9.82;;
76423;SDS011;65257;52.104;4.268;2024-02-14T03:38:01;36.40;;;9.88;;
76423;SDS011;65257;52.104;4.268;2024-02-14T03:40:28;46.17;;;10.38;;
76423;SDS011;65257;52.104;4.268;2024-02-14T03:42:55;44.78;;;10.25;;
76423;SDS011;65257;52.104;4.268;2024-02-14T03:45:24;50.05;;;9.57;;
76423;SDS011;65257;52.104;4.268;2024-02-14T03:47:54;43.85;;;9.75;;
76423;SDS011;65257;52.104;4.268;2024-02-14T03:50:21;47.80;;;9.13;;
76423;SDS011;65257;52.104;4.268;2024-02-14T03:52:48;39.65;;;8.40;;
76423;SDS011;65257;52.104;4.268;2024-02-14T03:55:14;40.88;;;8.90;;
76423;SDS011;65257;52.104;4.268;2024-02-14T03:57:42;36.92;;;8.63;;
76423;SDS011;65257;52.104;4.268;2024-02-14T04:00:11;45.13;;;7.53;;
76423;SDS011;65257;52.104;4.268;2024-02-14T04:02:37;39.75;;;7.32;;
76423;SDS011;65257;52.104;4.268;2024-02-14T04:05:05;45.90;;;8.75;;
76423;SDS011;65257;52.104;4.268;2024-02-14T04:07:32;46.72;;;9.23;;
76423;SDS011;65257;52.104;4.268;2024-02-14T04:10:02;36.05;;;8.13;;
76423;SDS011;65257;52.104;4.268;2024-02-14T04:12:28;46.88;;;9.90;;
76423;SDS011;65257;52.104;4.268;2024-02-14T04:14:57;51.95;;;10.68;;
76423;SDS011;65257;52.104;4.268;2024-02-14T04:17:25;41.75;;;7.90;;
76423;SDS011;65257;52.104;4.268;2024-02-14T04:19:50;42.15;;;9.10;;
76423;SDS011;65257;52.104;4.268;2024-02-14T04:22:16;38.72;;;7.50;;
76423;SDS011;65257;52.104;4.268;2024-02-14T04:24:41;56.28;;;10.98;;
76423;SDS011;65257;52.104;4.268;2024-02-14T04:27:07;42.67;;;8.20;;
76423;SDS011;65257;52.104;4.268;2024-02-14T04:29:32;46.67;;;8.10;;
76423;SDS011;65257;52.104;4.268;2024-02-14T04:31:59;50.67;;;10.02;;
76423;SDS011;65257;52.104;4.268;2024-02-14T04:34:25;62.67;;;11.30;;
76423;SDS011;65257;52.104;4.268;2024-02-14T04:36:51;42.63;;;10.40;;
76423;SDS011;65257;52.104;4.268;2024-02-14T04:39:17;54.78;;;12.07;;
76423;SDS011;65257;52.104;4.268;2024-02-14T04:41:42;56.33;;;12.15;;
76423;SDS011;65257;52.104;4.268;2024-02-14T04:44:08;41.50;;;8.48;;
76423;SDS011;65257;52.104;4.268;2024-02-14T04:46:34;35.75;;;8.50;;
76423;SDS011;65257;52.104;4.268;2024-02-14T04:49:09;42.70;;;9.32;;
76423;SDS011;65257;52.104;4.268;2024-02-14T04:51:39;31.20;;;7.57;;
76423;SDS011;65257;52.104;4.268;2024-02-14T04:54:04;37.70;;;8.48;;
76423;SDS011;65257;52.104;4.268;2024-02-14T04:56:30;34.25;;;7.85;;
76423;SDS011;65257;52.104;4.268;2024-02-14T04:58:56;32.65;;;7.25;;
76423;SDS011;65257;52.104;4.268;2024-02-14T05:01:23;34.50;;;7.15;;
76423;SDS011;65257;52.104;4.268;2024-02-14T05:03:48;25.52;;;7.15;;
76423;SDS011;65257;52.104;4.268;2024-02-14T05:06:14;26.92;;;6.90;;
76423;SDS011;65257;52.104;4.268;2024-02-14T05:08:40;32.28;;;8.63;;
76423;SDS011;65257;52.104;4.268;2024-02-14T05:11:06;26.85;;;7.15;;
76423;SDS011;65257;52.104;4.268;2024-02-14T05:13:32;39.53;;;8.68;;
76423;SDS011;65257;52.104;4.268;2024-02-14T05:15:57;31.25;;;7.25;;
76423;SDS011;65257;52.104;4.268;2024-02-14T05:18:26;32.58;;;6.07;;
76423;SDS011;65257;52.104;4.268;2024-02-14T05:20:51;33.55;;;5.75;;
76423;SDS011;65257;52.104;4.268;2024-02-14T05:23:17;27.25;;;6.25;;
76423;SDS011;65257;52.104;4.268;2024-02-14T05:25:42;35.47;;;7.90;;
76423;SDS011;65257;52.104;4.268;2024-02-14T05:28:08;39.30;;;5.95;;
76423;SDS011;65257;52.104;4.268;2024-02-14T05:30:41;38.42;;;6.90;;
76423;SDS011;65257;52.104;4.268;2024-02-14T05:33:06;37.60;;;7.55;;
76423;SDS011;65257;52.104;4.268;2024-02-14T05:35:32;32.47;;;6.90;;
76423;SDS011;65257;52.104;4.268;2024-02-14T05:37:57;47.22;;;9.65;;
76423;SDS011;65257;52.104;4.268;2024-02-14T05:40:23;48.47;;;8.90;;
76423;SDS011;65257;52.104;4.268;2024-02-14T05:42:49;46.83;;;8.82;;
76423;SDS011;65257;52.104;4.268;2024-02-14T05:45:15;42.67;;;9.43;;
76423;SDS011;65257;52.104;4.268;2024-02-14T05:47:40;37.75;;;7.78;;
76423;SDS011;65257;52.104;4.268;2024-02-14T05:50:07;66.57;;;12.75;;
76423;SDS011;65257;52.104;4.268;2024-02-14T05:52:42;59.47;;;10.70;;
76423;SDS011;65257;52.104;4.268;2024-02-14T05:55:07;41.28;;;10.02;;
76423;SDS011;65257;52.104;4.268;2024-02-14T05:57:34;45.15;;;9.98;;
76423;SDS011;65257;52.104;4.268;2024-02-14T06:00:02;50.97;;;10.82;;
76423;SDS011;65257;52.104;4.268;2024-02-14T06:02:28;47.90;;;10.25;;
76423;SDS011;65257;52.104;4.268;2024-02-14T06:04:54;38.60;;;8.70;;
76423;SDS011;65257;52.104;4.268;2024-02-14T06:07:19;32.45;;;7.80;;
76423;SDS011;65257;52.104;4.268;2024-02-14T06:09:47;26.45;;;6.68;;
76423;SDS011;65257;52.104;4.268;2024-02-14T06:12:13;33.03;;;6.20;;
76423;SDS011;65257;52.104;4.268;2024-02-14T06:14:38;31.70;;;9.00;;
76423;SDS011;65257;52.104;4.268;2024-02-14T06:17:04;29.70;;;8.10;;
76423;SDS011;65257;52.104;4.268;2024-02-14T06:19:30;41.55;;;8.93;;
76423;SDS011;65257;52.104;4.268;2024-02-14T06:24:29;41.20;;;9.02;;
76423;SDS011;65257;52.104;4.268;2024-02-14T06:26:54;30.60;;;8.25;;
76423;SDS011;65257;52.104;4.268;2024-02-14T06:29:20;34.38;;;8.80;;
76423;SDS011;65257;52.104;4.268;2024-02-14T06:31:46;50.53;;;11.45;;
76423;SDS011;65257;52.104;4.268;2024-02-14T06:34:15;47.45;;;12.20;;
76423;SDS011;65257;52.104;4.268;2024-02-14T06:36:41;36.83;;;12.55;;
76423;SDS011;65257;52.104;4.268;2024-02-14T06:39:06;38.85;;;10.95;;
76423;SDS011;65257;52.104;4.268;2024-02-14T06:41:33;33.75;;;10.70;;
76423;SDS011;65257;52.104;4.268;2024-02-14T06:44:01;29.92;;;10.02;;
76423;SDS011;65257;52.104;4.268;2024-02-14T06:46:26;44.00;;;14.80;;
76423;SDS011;65257;52.104;4.268;2024-02-14T06:48:52;33.22;;;10.45;;
76423;SDS011;65257;52.104;4.268;2024-02-14T06:51:19;34.22;;;9.20;;
76423;SDS011;65257;52.104;4.268;2024-02-14T06:53:45;29.00;;;9.73;;
76423;SDS011;65257;52.104;4.268;2024-02-14T06:56:11;27.48;;;10.15;;
76423;SDS011;65257;52.104;4.268;2024-02-14T06:58:36;31.80;;;8.90;;
76423;SDS011;65257;52.104;4.268;2024-02-14T07:01:02;36.17;;;11.38;;
76423;SDS011;65257;52.104;4.268;2024-02-14T07:03:28;35.95;;;11.90;;
76423;SDS011;65257;52.104;4.268;2024-02-14T07:05:56;34.20;;;9.35;;
76423;SDS011;65257;52.104;4.268;2024-02-14T07:08:25;26.20;;;8.13;;
76423;SDS011;65257;52.104;4.268;2024-02-14T07:10:54;26.52;;;8.48;;
76423;SDS011;65257;52.104;4.268;2024-02-14T07:13:25;28.92;;;9.85;;
76423;SDS011;65257;52.104;4.268;2024-02-14T07:15:50;31.08;;;8.73;;
76423;SDS011;65257;52.104;4.268;2024-02-14T07:18:16;26.50;;;8.93;;
76423;SDS011;65257;52.104;4.268;2024-02-14T07:20:42;27.45;;;8.65;;
76423;SDS011;65257;52.104;4.268;2024-02-14T07:23:08;34.38;;;8.50;;
76423;SDS011;65257;52.104;4.268;2024-02-14T07:25:33;26.25;;;8.43;;
76423;SDS011;65257;52.104;4.268;2024-02-14T07:27:59;27.10;;;8.80;;
76423;SDS011;65257;52.104;4.268;2024-02-14T07:30:27;24.85;;;8.13;;
76423;SDS011;65257;52.104;4.268;2024-02-14T07:32:52;31.02;;;7.43;;
76423;SDS011;65257;52.104;4.268;2024-02-14T07:35:18;30.48;;;7.72;;
76423;SDS011;65257;52.104;4.268;2024-02-14T07:37:43;33.65;;;6.78;;
76423;SDS011;65257;52.104;4.268;2024-02-14T07:40:12;25.42;;;7.93;;
76423;SDS011;65257;52.104;4.268;2024-02-14T07:42:37;29.83;;;8.35;;
76423;SDS011;65257;52.104;4.268;2024-02-14T07:45:02;29.65;;;8.27;;
76423;SDS011;65257;52.104;4.268;2024-02-14T07:47:31;32.50;;;9.45;;
76423;SDS011;65257;52.104;4.268;2024-02-14T07:50:00;32.05;;;7.78;;
76423;SDS011;65257;52.104;4.268;2024-02-14T07:52:28;28.50;;;6.90;;
76423;SDS011;65257;52.104;4.268;2024-02-14T07:54:54;22.73;;;6.65;;
76423;SDS011;65257;52.104;4.268;2024-02-14T07:57:21;32.88;;;7.07;;
76423;SDS011;65257;52.104;4.268;2024-02-14T07:59:54;23.85;;;6.30;;
76423;SDS011;65257;52.104;4.268;2024-02-14T08:02:23;24.98;;;7.22;;
76423;SDS011;65257;52.104;4.268;2024-02-14T08:04:48;21.42;;;7.45;;
76423;SDS011;65257;52.104;4.268;2024-02-14T08:07:13;31.95;;;7.72;;
76423;SDS011;65257;52.104;4.268;2024-02-14T08:09:42;28.30;;;8.80;;
76423;SDS011;65257;52.104;4.268;2024-02-14T08:12:07;18.02;;;5.95;;
76423;SDS011;65257;52.104;4.268;2024-02-14T08:14:32;28.80;;;10.05;;
76423;SDS011;65257;52.104;4.268;2024-02-14T08:16:58;32.22;;;11.25;;
76423;SDS011;65257;52.104;4.268;2024-02-14T08:19:23;26.98;;;8.65;;
76423;SDS011;65257;52.104;4.268;2024-02-14T08:21:49;23.27;;;9.90;;
76423;SDS011;65257;52.104;4.268;2024-02-14T08:24:24;22.60;;;9.55;;
76423;SDS011;65257;52.104;4.268;2024-02-14T08:26:56;22.42;;;11.13;;
76423;SDS011;65257;52.104;4.268;2024-02-14T08:29:22;25.48;;;10.48;;
76423;SDS011;65257;52.104;4.268;2024-02-14T08:31:48;25.65;;;11.07;;
76423;SDS011;65257;52.104;4.268;2024-02-14T08:34:17;22.98;;;10.60;;
76423;SDS011;65257;52.104;4.268;2024-02-14T08:36:42;22.13;;;10.90;;
76423;SDS011;65257;52.104;4.268;2024-02-14T08:39:08;17.60;;;9.35;;
76423;SDS011;65257;52.104;4.268;2024-02-14T08:41:37;17.92;;;9.60;;
76423;SDS011;65257;52.104;4.268;2024-02-14T08:44:03;20.63;;;10.20;;
76423;SDS011;65257;52.104;4.268;2024-02-14T08:46:38;21.58;;;10.50;;
76423;SDS011;65257;52.104;4.268;2024-02-14T08:49:04;21.00;;;9.90;;
76423;SDS011;65257;52.104;4.268;2024-02-14T08:51:34;21.15;;;10.80;;
76423;SDS011;65257;52.104;4.268;2024-02-14T08:54:04;27.13;;;11.10;;
76423;SDS011;65257;52.104;4.268;2024-02-14T08:56:37;31.40;;;12.00;;
76423;SDS011;65257;52.104;4.268;2024-02-14T08:59:02;29.90;;;11.82;;
76423;SDS011;65257;52.104;4.268;2024-02-14T09:01:35;22.67;;;10.43;;
76423;SDS011;65257;52.104;4.268;2024-02-14T09:04:04;24.05;;;9.25;;
76423;SDS011;65257;52.104;4.268;2024-02-14T09:06:30;16.02;;;8.02;;
76423;SDS011;65257;52.104;4.268;2024-02-14T09:08:57;19.75;;;8.45;;
76423;SDS011;65257;52.104;4.268;2024-02-14T09:11:22;12.70;;;7.20;;
76423;SDS011;65257;52.104;4.268;2024-02-14T09:13:54;11.77;;;6.95;;
76423;SDS011;65257;52.104;4.268;2024-02-14T09:16:24;13.32;;;6.45;;
76423;SDS011;65257;52.104;4.268;2024-02-14T09:18:49;11.65;;;6.45;;
76423;SDS011;65257;52.104;4.268;2024-02-14T09:21:15;11.60;;;6.25;;
76423;SDS011;65257;52.104;4.268;2024-02-14T09:23:52;9.38;;;6.65;;
76423;SDS011;65257;52.104;4.268;2024-02-14T09:26:18;8.73;;;6.30;;
76423;SDS011;65257;52.104;4.268;2024-02-14T09:28:46;8.50;;;5.55;;
76423;SDS011;65257;52.104;4.268;2024-02-14T09:31:12;9.20;;;5.15;;
76423;SDS011;65257;52.104;4.268;2024-02-14T09:33:37;8.70;;;4.70;;
76423;SDS011;65257;52.104;4.268;2024-02-14T09:36:04;6.75;;;5.00;;
76423;SDS011;65257;52.104;4.268;2024-02-14T09:38:34;7.05;;;3.55;;
76423;SDS011;65257;52.104;4.268;2024-02-14T09:41:22;8.20;;;4.55;;
76423;SDS011;65257;52.104;4.268;2024-02-14T09:43:52;9.10;;;5.00;;
76423;SDS011;65257;52.104;4.268;2024-02-14T09:46:17;9.05;;;5.85;;
76423;SDS011;65257;52.104;4.268;2024-02-14T09:48:44;8.10;;;5.45;;
76423;SDS011;65257;52.104;4.268;2024-02-14T09:51:11;7.30;;;4.57;;
76423;SDS011;65257;52.104;4.268;2024-02-14T09:53:38;9.32;;;5.80;;
76423;SDS011;65257;52.104;4.268;2024-02-14T09:56:05;7.47;;;5.25;;
76423;SDS011;65257;52.104;4.268;2024-02-14T09:58:31;7.85;;;5.30;;
76423;SDS011;65257;52.104;4.268;2024-02-14T10:01:00;7.13;;;4.38;;
76423;SDS011;65257;52.104;4.268;2024-02-14T10:03:29;5.57;;;3.88;;
76423;SDS011;65257;52.104;4.268;2024-02-14T10:05:54;8.40;;;4.55;;
76423;SDS011;65257;52.104;4.268;2024-02-14T10:08:20;6.95;;;4.35;;
76423;SDS011;65257;52.104;4.268;2024-02-14T10:10:49;5.65;;;4.03;;
76423;SDS011;65257;52.104;4.268;2024-02-14T10:13:15;6.95;;;3.75;;
76423;SDS011;65257;52.104;4.268;2024-02-14T10:15:41;7.18;;;4.35;;
76423;SDS011;65257;52.104;4.268;2024-02-14T10:18:06;5.32;;;3.90;;
76423;SDS011;65257;52.104;4.268;2024-02-14T10:23:05;5.15;;;3.67;;
76423;SDS011;65257;52.104;4.268;2024-02-14T10:25:31;5.95;;;4.35;;
76423;SDS011;65257;52.104;4.268;2024-02-14T10:28:03;5.00;;;4.00;;
76423;SDS011;65257;52.104;4.268;2024-02-14T10:30:33;4.50;;;3.65;;
76423;SDS011;65257;52.104;4.268;2024-02-14T10:33:00;4.60;;;3.55;;
76423;SDS011;65257;52.104;4.268;2024-02-14T10:35:27;5.28;;;3.85;;
76423;SDS011;65257;52.104;4.268;2024-02-14T10:40:25;5.13;;;4.10;;
76423;SDS011;65257;52.104;4.268;2024-02-14T10:42:53;5.68;;;4.50;;
76423;SDS011;65257;52.104;4.268;2024-02-14T10:45:19;3.97;;;3.35;;
76423;SDS011;65257;52.104;4.268;2024-02-14T10:47:45;6.05;;;4.57;;
76423;SDS011;65257;52.104;4.268;2024-02-14T10:50:14;6.90;;;4.95;;
76423;SDS011;65257;52.104;4.268;2024-02-14T10:52:41;7.07;;;4.72;;
76423;SDS011;65257;52.104;4.268;2024-02-14T10:55:07;7.75;;;4.97;;
76423;SDS011;65257;52.104;4.268;2024-02-14T10:57:34;6.57;;;4.80;;
76423;SDS011;65257;52.104;4.268;2024-02-14T11:00:01;6.65;;;5.85;;
76423;SDS011;65257;52.104;4.268;2024-02-14T11:02:31;8.07;;;5.72;;
76423;SDS011;65257;52.104;4.268;2024-02-14T11:04:57;8.70;;;5.18;;
76423;SDS011;65257;52.104;4.268;2024-02-14T11:07:23;6.45;;;5.63;;
76423;SDS011;65257;52.104;4.268;2024-02-14T11:10:08;7.20;;;5.20;;
76423;SDS011;65257;52.104;4.268;2024-02-14T11:12:34;7.90;;;5.35;;
76423;SDS011;65257;52.104;4.268;2024-02-14T11:17:34;7.90;;;5.45;;
76423;SDS011;65257;52.104;4.268;2024-02-14T11:19:59;7.18;;;4.70;;
76423;SDS011;65257;52.104;4.268;2024-02-14T11:22:25;6.07;;;4.35;;
76423;SDS011;65257;52.104;4.268;2024-02-14T11:25:14;5.65;;;4.13;;
76423;SDS011;65257;52.104;4.268;2024-02-14T11:27:45;5.68;;;4.20;;
76423;SDS011;65257;52.104;4.268;2024-02-14T11:30:20;6.03;;;3.97;;
76423;SDS011;65257;52.104;4.268;2024-02-14T11:32:52;5.20;;;3.95;;
76423;SDS011;65257;52.104;4.268;2024-02-14T11:35:17;4.22;;;3.25;;
76423;SDS011;65257;52.104;4.268;2024-02-14T11:37:44;5.90;;;3.53;;
76423;SDS011;65257;52.104;4.268;2024-02-14T11:40:19;4.13;;;3.10;;
76423;SDS011;65257;52.104;4.268;2024-02-14T11:42:45;5.18;;;3.72;;
76423;SDS011;65257;52.104;4.268;2024-02-14T11:45:15;5.15;;;4.00;;
76423;SDS011;65257;52.104;4.268;2024-02-14T11:47:40;5.35;;;3.15;;
76423;SDS011;65257;52.104;4.268;2024-02-14T11:50:09;4.38;;;3.20;;
76423;SDS011;65257;52.104;4.268;2024-02-14T11:52:40;5.80;;;3.70;;
76423;SDS011;65257;52.104;4.268;2024-02-14T11:55:05;6.13;;;3.63;;
76423;SDS011;65257;52.104;4.268;2024-02-14T11:57:32;4.72;;;3.53;;
76423;SDS011;65257;52.104;4.268;2024-02-14T12:00:00;5.10;;;3.55;;
76423;SDS011;65257;52.104;4.268;2024-02-14T12:02:26;6.75;;;4.30;;
76423;SDS011;65257;52.104;4.268;2024-02-14T12:04:58;8.73;;;4.80;;
76423;SDS011;65257;52.104;4.268;2024-02-14T12:07:23;7.40;;;4.40;;
76423;SDS011;65257;52.104;4.268;2024-02-14T12:09:50;8.13;;;4.75;;
76423;SDS011;65257;52.104;4.268;2024-02-14T12:12:16;9.23;;;5.47;;
76423;SDS011;65257;52.104;4.268;2024-02-14T12:14:51;13.35;;;6.47;;
76423;SDS011;65257;52.104;4.268;2024-02-14T12:17:17;12.20;;;5.70;;
76423;SDS011;65257;52.104;4.268;2024-02-14T12:19:47;9.77;;;5.47;;
76423;SDS011;65257;52.104;4.268;2024-02-14T12:22:15;9.27;;;5.25;;
76423;SDS011;65257;52.104;4.268;2024-02-14T12:24:45;7.30;;;5.00;;
76423;SDS011;65257;52.104;4.268;2024-02-14T12:27:13;7.82;;;4.60;;
76423;SDS011;65257;52.104;4.268;2024-02-14T12:29:45;8.35;;;4.95;;
76423;SDS011;65257;52.104;4.268;2024-02-14T12:32:10;12.55;;;5.70;;
76423;SDS011;65257;52.104;4.268;2024-02-14T12:34:39;15.95;;;5.97;;
76423;SDS011;65257;52.104;4.268;2024-02-14T12:37:04;16.02;;;5.72;;
76423;SDS011;65257;52.104;4.268;2024-02-14T12:39:31;10.98;;;5.50;;
76423;SDS011;65257;52.104;4.268;2024-02-14T12:42:05;14.20;;;5.35;;
76423;SDS011;65257;52.104;4.268;2024-02-14T12:44:33;8.95;;;5.32;;
76423;SDS011;65257;52.104;4.268;2024-02-14T12:46:58;12.00;;;5.93;;
76423;SDS011;65257;52.104;4.268;2024-02-14T12:49:30;17.98;;;6.93;;
76423;SDS011;65257;52.104;4.268;2024-02-14T12:51:59;14.02;;;6.50;;
76423;SDS011;65257;52.104;4.268;2024-02-14T12:54:25;13.05;;;7.93;;
76423;SDS011;65257;52.104;4.268;2024-02-14T12:56:52;16.75;;;6.90;;
76423;SDS011;65257;52.104;4.268;2024-02-14T12:59:18;18.00;;;8.23;;
76423;SDS011;65257;52.104;4.268;2024-02-14T13:01:44;15.82;;;8.38;;
76423;SDS011;65257;52.104;4.268;2024-02-14T13:04:09;16.58;;;7.90;;
76423;SDS011;65257;52.104;4.268;2024-02-14T13:06:35;19.38;;;8.13;;
76423;SDS011;65257;52.104;4.268;2024-02-14T13:09:03;18.48;;;7.95;;
76423;SDS011;65257;52.104;4.268;2024-02-14T13:11:36;30.23;;;8.43;;
76423;SDS011;65257;52.104;4.268;2024-02-14T13:14:02;14.43;;;6.80;;
76423;SDS011;65257;52.104;4.268;2024-02-14T13:16:29;19.00;;;6.30;;
76423;SDS011;65257;52.104;4.268;2024-02-14T13:18:54;16.45;;;5.32;;
76423;SDS011;65257;52.104;4.268;2024-02-14T13:21:19;15.15;;;4.97;;
76423;SDS011;65257;52.104;4.268;2024-02-14T13:23:45;13.27;;;5.72;;
76423;SDS011;65257;52.104;4.268;2024-02-14T13:26:10;15.07;;;4.72;;
76423;SDS011;65257;52.104;4.268;2024-02-14T13:28:38;11.85;;;4.57;;
76423;SDS011;65257;52.104;4.268;2024-02-14T13:31:03;10.25;;;3.83;;
76423;SDS011;65257;52.104;4.268;2024-02-14T13:33:28;7.05;;;3.40;;
76423;SDS011;65257;52.104;4.268;2024-02-14T13:35:54;11.70;;;3.28;;
76423;SDS011;65257;52.104;4.268;2024-02-14T13:38:22;8.32;;;3.20;;
76423;SDS011;65257;52.104;4.268;2024-02-14T13:40:50;9.88;;;3.03;;
76423;SDS011;65257;52.104;4.268;2024-02-14T13:43:16;6.55;;;3.35;;
76423;SDS011;65257;52.104;4.268;2024-02-14T13:45:43;10.95;;;3.03;;
76423;SDS011;65257;52.104;4.268;2024-02-14T13:48:09;13.05;;;3.80;;
76423;SDS011;65257;52.104;4.268;2024-02-14T13:50:38;10.20;;;3.10;;
76423;SDS011;65257;52.104;4.268;2024-02-14T13:53:08;8.98;;;4.05;;
76423;SDS011;65257;52.104;4.268;2024-02-14T13:55:34;18.67;;;4.10;;
76423;SDS011;65257;52.104;4.268;2024-02-14T13:58:03;21.63;;;4.93;;
76423;SDS011;65257;52.104;4.268;2024-02-14T14:00:28;19.65;;;4.90;;
76423;SDS011;65257;52.104;4.268;2024-02-14T14:02:54;17.88;;;3.63;;
76423;SDS011;65257;52.104;4.268;2024-02-14T14:05:22;13.20;;;4.30;;
76423;SDS011;65257;52.104;4.268;2024-02-14T14:07:47;17.05;;;4.18;;
76423;SDS011;65257;52.104;4.268;2024-02-14T14:10:13;13.82;;;3.78;;
76423;SDS011;65257;52.104;4.268;2024-02-14T14:12:40;14.20;;;4.00;;
76423;SDS011;65257;52.104;4.268;2024-02-14T14:15:05;20.67;;;3.50;;
76423;SDS011;65257;52.104;4.268;2024-02-14T14:17:31;18.60;;;4.00;;
76423;SDS011;65257;52.104;4.268;2024-02-14T14:19:56;15.65;;;3.22;;
76423;SDS011;65257;52.104;4.268;2024-02-14T14:22:22;16.05;;;3.35;;
76423;SDS011;65257;52.104;4.268;2024-02-14T14:24:48;13.73;;;4.55;;
76423;SDS011;65257;52.104;4.268;2024-02-14T14:27:16;19.27;;;4.18;;
76423;SDS011;65257;52.104;4.268;2024-02-14T14:29:42;20.23;;;4.20;;
76423;SDS011;65257;52.104;4.268;2024-02-14T14:32:08;9.68;;;3.15;;
76423;SDS011;65257;52.104;4.268;2024-02-14T14:34:40;14.55;;;3.28;;
76423;SDS011;65257;52.104;4.268;2024-02-14T14:37:05;14.15;;;3.65;;
76423;SDS011;65257;52.104;4.268;2024-02-14T14:39:31;20.40;;;4.65;;
76423;SDS011;65257;52.104;4.268;2024-02-14T14:42:00;16.73;;;3.83;;
76423;SDS011;65257;52.104;4.268;2024-02-14T14:44:25;14.57;;;3.35;;